Time;durP1;ratioP1;P1;durP2;ratioP2;P2;SDS_P1;SDS_P2;PMS_P1;PMS_P2;Temp;Humidity;BMP_temperature;BMP_pressure;BME280_temperature;BME280_humidity;BME280_pressure;Samples;Min_cycle;Max_cycle;Signal;HPM_P1;HPM_P2
2022/11/07 00:01:36;;;;;;;;;;;10.10;99.90;;;;;;2010072;71;20355;-73
2022/11/07 00:04:03;;;;;;;;;;;10.00;99.90;;;;;;2007777;71;20113;-73
2022/11/07 00:06:30;;;;;;;;;;;10.00;99.90;;;;;;2006756;71;20163;-73
2022/11/07 00:08:58;;;;;;;;;;;10.00;99.90;;;;;;2004415;71;20384;-73
2022/11/07 00:11:24;;;;;;;;;;;9.90;99.90;;;;;;2009984;71;20324;-74
2022/11/07 00:13:51;;;;;;;;;;;9.90;99.90;;;;;;2004823;71;20143;-73
2022/11/07 00:16:18;;;;;;;;;;;10.00;99.90;;;;;;2003635;71;20152;-74
2022/11/07 00:18:44;;;;;;;;;;;10.20;99.90;;;;;;2003715;71;20113;-72
2022/11/07 00:21:11;;;;;;;;;;;10.20;99.90;;;;;;2004721;71;20121;-72
2022/11/07 00:23:41;;;;;;;;;;;10.20;99.90;;;;;;2007238;71;20113;-73
2022/11/07 00:26:08;;;;;;;;;;;10.30;99.90;;;;;;2008858;71;20328;-75
2022/11/07 00:28:35;;;;;;;;;;;10.40;99.90;;;;;;2010132;71;20327;-74
2022/11/07 00:31:02;;;;;;;;;;;10.40;99.90;;;;;;2004760;71;20105;-74
2022/11/07 00:33:29;;;;;;;;;;;10.40;99.90;;;;;;2003766;71;20171;-74
2022/11/07 00:35:56;;;;;;;;;;;10.40;99.90;;;;;;2007080;71;20138;-73
2022/11/07 00:38:22;;;;;;;;;;;10.30;99.90;;;;;;2008222;71;20159;-73
2022/11/07 00:40:59;;;;;;;;;;;10.20;99.90;;;;;;2004854;71;20315;-73
2022/11/07 00:43:26;;;;;;;;;;;10.20;99.90;;;;;;2008399;71;20148;-73
2022/11/07 00:45:53;;;;;;;;;;;10.20;99.90;;;;;;2006516;71;20112;-73
2022/11/07 00:48:20;;;;;;;;;;;10.20;99.90;;;;;;2005439;71;20178;-73
2022/11/07 00:50:46;;;;;;;;;;;10.20;99.90;;;;;;2009691;71;20217;-73
2022/11/07 00:53:13;;;;;;;;;;;10.20;99.90;;;;;;2008257;71;20116;-73
2022/11/07 00:55:40;;;;;;;;;;;10.20;99.90;;;;;;2010049;71;20096;-74
2022/11/07 00:58:06;;;;;;;;;;;10.20;99.90;;;;;;2009978;71;20143;-73
2022/11/07 01:00:33;;;;;;;;;;;10.30;99.90;;;;;;2007380;71;20329;-74
2022/11/07 01:05:46;;;;;;;;;;;10.30;99.90;;;;;;2008803;71;20149;-74
2022/11/07 01:08:13;;;;;;;;;;;10.20;99.90;;;;;;2007615;71;20161;-73
2022/11/07 01:10:42;;;;;;;;;;;10.20;99.90;;;;;;2004048;71;20195;-74
2022/11/07 01:13:09;;;;;;;;;;;10.20;99.90;;;;;;2007482;71;20113;-72
2022/11/07 01:15:37;;;;;;;;;;;10.20;99.90;;;;;;2005028;71;20116;-74
2022/11/07 01:18:04;;;;;;;;;;;10.20;99.90;;;;;;2006845;71;20119;-74
2022/11/07 01:20:31;;;;;;;;;;;10.10;99.90;;;;;;2004869;71;20117;-71
2022/11/07 01:22:58;;;;;;;;;;;10.20;99.90;;;;;;2007058;71;20117;-72
2022/11/07 01:25:24;;;;;;;;;;;10.10;99.90;;;;;;2009866;71;20100;-73
2022/11/07 01:27:51;;;;;;;;;;;10.10;99.90;;;;;;2008321;71;20105;-74
2022/11/07 01:30:18;;;;;;;;;;;10.00;99.90;;;;;;2008877;71;20116;-74
2022/11/07 01:32:44;;;;;;;;;;;10.00;99.90;;;;;;2009590;71;20104;-74
2022/11/07 01:35:11;;;;;;;;;;;10.00;99.90;;;;;;2009839;71;20112;-73
2022/11/07 01:37:38;;;;;;;;;;;9.90;99.90;;;;;;2008912;71;20149;-74
2022/11/07 01:40:05;;;;;;;;;;;9.80;99.90;;;;;;2010042;71;20145;-74
2022/11/07 01:42:31;;;;;;;;;;;9.70;99.90;;;;;;2006996;71;20116;-74
2022/11/07 01:45:00;;;;;;;;;;;9.70;99.90;;;;;;2008593;71;20165;-74
2022/11/07 01:47:28;;;;;;;;;;;9.80;99.90;;;;;;2007955;71;20193;-73
2022/11/07 01:49:55;;;;;;;;;;;9.80;99.90;;;;;;2006256;71;20115;-73
2022/11/07 01:52:23;;;;;;;;;;;9.70;99.90;;;;;;2008796;71;20115;-74
2022/11/07 01:55:10;;;;;;;;;;;9.60;99.90;;;;;;2010137;71;20112;-73
2022/11/07 01:57:38;;;;;;;;;;;9.50;99.90;;;;;;2008984;71;20158;-73
2022/11/07 02:00:06;;;;;;;;;;;9.50;99.90;;;;;;2009942;71;20108;-75
2022/11/07 02:02:33;;;;;;;;;;;9.40;99.90;;;;;;2009192;71;20111;-74
2022/11/07 02:04:59;;;;;;;;;;;9.40;99.90;;;;;;2004907;71;20107;-74
2022/11/07 02:07:26;;;;;;;;;;;9.30;99.90;;;;;;2004737;71;20220;-73
2022/11/07 02:09:53;;;;;;;;;;;9.20;99.90;;;;;;2009558;71;20134;-74
2022/11/07 02:12:20;;;;;;;;;;;9.20;99.90;;;;;;2009895;71;20119;-74
2022/11/07 02:14:47;;;;;;;;;;;9.10;99.90;;;;;;2005429;71;20142;-74
2022/11/07 02:17:13;;;;;;;;;;;9.10;99.90;;;;;;2009908;71;20112;-73
2022/11/07 02:19:42;;;;;;;;;;;9.20;99.90;;;;;;2009450;71;20108;-75
2022/11/07 02:22:16;;;;;;;;;;;9.20;99.90;;;;;;2007372;71;20153;-73
2022/11/07 02:24:42;;;;;;;;;;;9.10;99.90;;;;;;2008685;71;20343;-74
2022/11/07 02:27:10;;;;;;;;;;;9.20;99.90;;;;;;2007535;71;20106;-74
2022/11/07 02:29:37;;;;;;;;;;;9.30;99.90;;;;;;1982792;71;20183;-74
2022/11/07 02:32:05;;;;;;;;;;;9.40;99.90;;;;;;2007658;71;20116;-74
2022/11/07 02:34:32;;;;;;;;;;;9.20;99.90;;;;;;2007224;71;20378;-75
2022/11/07 02:36:59;;;;;;;;;;;9.20;99.90;;;;;;2004668;71;20236;-74
2022/11/07 02:39:26;;;;;;;;;;;9.20;99.90;;;;;;2008740;71;20106;-74
2022/11/07 02:41:53;;;;;;;;;;;9.30;99.90;;;;;;2008320;71;20318;-74
2022/11/07 02:44:19;;;;;;;;;;;9.40;99.90;;;;;;2005650;71;20381;-74
2022/11/07 02:46:46;;;;;;;;;;;9.30;99.90;;;;;;2009845;71;20123;-74
2022/11/07 02:49:13;;;;;;;;;;;9.30;99.90;;;;;;2010009;71;20104;-74
2022/11/07 02:51:39;;;;;;;;;;;9.30;99.90;;;;;;2008638;71;20112;-73
2022/11/07 02:54:06;;;;;;;;;;;9.40;99.90;;;;;;2008705;71;20176;-74
2022/11/07 02:56:33;;;;;;;;;;;9.50;99.90;;;;;;2006447;71;20120;-73
2022/11/07 02:59:00;;;;;;;;;;;9.50;99.90;;;;;;2003742;71;20110;-73
2022/11/07 03:01:29;;;;;;;;;;;9.50;99.90;;;;;;2006990;71;20365;-74
2022/11/07 03:03:56;;;;;;;;;;;9.50;99.90;;;;;;2005909;71;20113;-73
2022/11/07 03:06:23;;;;;;;;;;;9.70;99.90;;;;;;2008280;71;20119;-73
2022/11/07 03:08:50;;;;;;;;;;;9.80;99.90;;;;;;2009890;71;20104;-73
2022/11/07 03:11:21;;;;;;;;;;;9.80;99.90;;;;;;2009915;71;20190;-73
2022/11/07 03:13:46;;;;;;;;;;;9.90;99.90;;;;;;2007945;71;20133;-73
2022/11/07 03:16:13;;;;;;;;;;;9.90;99.90;;;;;;2009892;71;20196;-73
2022/11/07 03:18:39;;;;;;;;;;;9.80;99.90;;;;;;2008732;71;20120;-72
2022/11/07 03:21:06;;;;;;;;;;;9.80;99.90;;;;;;2009983;71;20142;-73
2022/11/07 03:23:33;;;;;;;;;;;9.80;99.90;;;;;;2009576;71;20185;-74
2022/11/07 03:26:00;;;;;;;;;;;9.90;99.90;;;;;;2006873;71;20134;-72
2022/11/07 03:28:27;;;;;;;;;;;9.90;99.90;;;;;;2007603;71;20351;-73
2022/11/07 03:30:54;;;;;;;;;;;9.80;99.90;;;;;;2008806;71;20116;-73
2022/11/07 03:33:20;;;;;;;;;;;9.80;99.90;;;;;;2008886;71;20349;-73
2022/11/07 03:35:47;;;;;;;;;;;9.70;99.90;;;;;;2009964;71;20112;-73
2022/11/07 03:38:14;;;;;;;;;;;9.60;99.90;;;;;;2009976;71;20373;-73
2022/11/07 03:40:40;;;;;;;;;;;9.80;99.90;;;;;;2006490;71;20112;-73
2022/11/07 03:43:07;;;;;;;;;;;9.80;99.90;;;;;;2006518;71;20370;-73
2022/11/07 03:45:34;;;;;;;;;;;9.70;99.90;;;;;;2006470;71;20112;-73
2022/11/07 03:48:00;;;;;;;;;;;9.70;99.90;;;;;;2007685;71;20325;-73
2022/11/07 03:50:27;;;;;;;;;;;9.60;99.90;;;;;;2005798;71;20116;-73
2022/11/07 03:52:54;;;;;;;;;;;9.70;99.90;;;;;;2007235;71;20153;-73
2022/11/07 03:55:20;;;;;;;;;;;9.60;99.90;;;;;;2006436;71;20363;-73
2022/11/07 03:57:47;;;;;;;;;;;9.70;99.90;;;;;;2007984;71;20209;-74
2022/11/07 04:00:14;;;;;;;;;;;9.70;99.90;;;;;;2008473;71;20176;-75
2022/11/07 04:02:41;;;;;;;;;;;9.60;99.90;;;;;;2004377;71;20113;-73
2022/11/07 04:05:08;;;;;;;;;;;9.60;99.90;;;;;;2005096;71;20153;-73
2022/11/07 04:07:35;;;;;;;;;;;9.70;99.90;;;;;;2007496;71;20345;-74
2022/11/07 04:10:02;;;;;;;;;;;9.60;99.90;;;;;;2003533;71;20213;-74
2022/11/07 04:17:59;;;;;;;;;;;9.60;99.90;;;;;;2009975;71;20112;-74
2022/11/07 04:20:26;;;;;;;;;;;9.60;99.90;;;;;;2010101;71;20107;-73
2022/11/07 04:22:53;;;;;;;;;;;9.50;99.90;;;;;;2009008;71;20146;-75
2022/11/07 04:27:41;;;;;;;;;;;9.40;99.90;;;;;;2009962;71;20154;-74
2022/11/07 04:27:48;;;;;;;;;;;9.50;99.90;;;;;;2001760;71;20249;-74
2022/11/07 04:30:18;;;;;;;;;;;9.50;99.90;;;;;;2008424;71;20147;-74
2022/11/07 04:32:49;;;;;;;;;;;9.50;99.90;;;;;;2003999;71;20167;-75
2022/11/07 04:35:16;;;;;;;;;;;9.60;99.90;;;;;;2006586;71;20105;-73
2022/11/07 04:37:42;;;;;;;;;;;9.50;99.90;;;;;;2007665;71;20166;-74
2022/11/07 04:40:09;;;;;;;;;;;9.50;99.90;;;;;;2010146;71;20133;-73
2022/11/07 04:42:36;;;;;;;;;;;9.40;99.90;;;;;;2008406;71;20109;-75
2022/11/07 04:45:03;;;;;;;;;;;9.20;99.90;;;;;;2005940;71;20118;-74
2022/11/07 04:47:29;;;;;;;;;;;9.20;99.90;;;;;;2012085;71;20326;-73
2022/11/07 04:49:56;;;;;;;;;;;9.30;99.90;;;;;;2008008;71;20142;-75
2022/11/07 04:52:23;;;;;;;;;;;9.20;99.90;;;;;;2008688;71;20310;-74
2022/11/07 04:54:49;;;;;;;;;;;9.10;99.90;;;;;;2010124;71;20158;-74
2022/11/07 04:57:16;;;;;;;;;;;9.10;99.90;;;;;;2006521;71;20365;-74
2022/11/07 04:59:43;;;;;;;;;;;9.30;99.90;;;;;;2005855;71;20159;-75
2022/11/07 05:02:10;;;;;;;;;;;9.40;99.90;;;;;;2009737;71;20344;-74
2022/11/07 05:04:37;;;;;;;;;;;9.40;99.90;;;;;;2004304;71;20196;-75
2022/11/07 05:07:04;;;;;;;;;;;9.40;99.90;;;;;;2007951;71;20112;-75
2022/11/07 05:09:30;;;;;;;;;;;9.40;99.90;;;;;;2005407;71;20187;-73
2022/11/07 05:11:57;;;;;;;;;;;9.50;99.90;;;;;;2004403;71;20183;-74
2022/11/07 05:14:24;;;;;;;;;;;9.50;99.90;;;;;;2010046;71;20194;-73
2022/11/07 05:16:50;;;;;;;;;;;9.40;99.90;;;;;;2008272;71;20162;-73
2022/11/07 05:19:17;;;;;;;;;;;9.20;99.90;;;;;;2007351;71;20139;-74
2022/11/07 05:21:44;;;;;;;;;;;9.30;99.90;;;;;;2007887;71;20147;-74
2022/11/07 05:24:11;;;;;;;;;;;9.30;99.90;;;;;;2004171;71;20139;-73
2022/11/07 05:26:38;;;;;;;;;;;9.20;99.90;;;;;;2006573;71;20112;-76
2022/11/07 05:29:05;;;;;;;;;;;9.10;99.90;;;;;;2007463;71;20302;-74
2022/11/07 05:31:32;;;;;;;;;;;9.30;99.90;;;;;;2007258;71;20327;-74
2022/11/07 05:33:58;;;;;;;;;;;9.20;99.90;;;;;;2005530;71;20174;-73
2022/11/07 05:36:25;;;;;;;;;;;9.20;99.90;;;;;;2006075;71;20182;-74
2022/11/07 05:38:52;;;;;;;;;;;9.20;99.90;;;;;;2005696;71;20116;-73
2022/11/07 05:41:19;;;;;;;;;;;9.10;99.90;;;;;;2005950;71;20206;-74
2022/11/07 05:43:46;;;;;;;;;;;9.20;99.90;;;;;;2007103;71;20177;-74
2022/11/07 05:46:13;;;;;;;;;;;9.20;99.90;;;;;;2010776;71;20343;-74
2022/11/07 05:48:39;;;;;;;;;;;9.00;99.90;;;;;;2003640;71;20164;-74
2022/11/07 05:51:07;;;;;;;;;;;8.90;99.90;;;;;;2004771;71;20353;-74
2022/11/07 05:53:34;;;;;;;;;;;8.80;99.90;;;;;;2003738;72;20105;-75
2022/11/07 05:56:01;;;;;;;;;;;9.00;99.90;;;;;;2008074;71;20315;-75
2022/11/07 05:58:27;;;;;;;;;;;9.10;99.90;;;;;;2006395;71;20108;-75
2022/11/07 06:00:54;;;;;;;;;;;9.10;99.90;;;;;;2010050;71;20316;-75
2022/11/07 06:03:21;;;;;;;;;;;9.00;99.90;;;;;;2009981;71;20143;-74
2022/11/07 06:05:48;;;;;;;;;;;8.90;99.90;;;;;;2009923;71;20104;-75
2022/11/07 06:08:15;;;;;;;;;;;9.00;99.90;;;;;;2010047;71;20343;-75
2022/11/07 06:10:41;;;;;;;;;;;9.00;99.90;;;;;;2007661;71;20112;-76
2022/11/07 06:13:10;;;;;;;;;;;9.10;99.90;;;;;;2007665;71;20106;-75
2022/11/07 06:15:36;;;;;;;;;;;9.00;99.90;;;;;;2008785;71;20104;-75
2022/11/07 06:18:05;;;;;;;;;;;9.10;99.90;;;;;;2009858;71;20158;-75
2022/11/07 06:20:33;;;;;;;;;;;9.20;99.90;;;;;;2004777;71;20162;-75
2022/11/07 06:23:02;;;;;;;;;;;9.10;99.90;;;;;;2005860;71;20117;-75
2022/11/07 06:25:28;;;;;;;;;;;9.10;99.90;;;;;;2006610;71;20150;-74
2022/11/07 06:27:59;;;;;;;;;;;9.10;99.90;;;;;;2009022;71;20104;-75
2022/11/07 06:30:27;;;;;;;;;;;9.10;99.90;;;;;;2009975;71;20371;-76
2022/11/07 06:32:57;;;;;;;;;;;9.00;99.90;;;;;;2004027;71;20151;-75
2022/11/07 06:35:25;;;;;;;;;;;9.10;99.90;;;;;;2006772;71;20131;-76
2022/11/07 06:37:52;;;;;;;;;;;9.10;99.90;;;;;;2006281;71;20343;-75
2022/11/07 06:40:18;;;;;;;;;;;9.00;99.90;;;;;;2009840;71;20115;-76
2022/11/07 06:42:45;;;;;;;;;;;9.00;99.90;;;;;;2009208;71;20330;-76
2022/11/07 06:45:12;;;;;;;;;;;9.00;99.90;;;;;;2009338;71;20104;-75
2022/11/07 06:47:39;;;;;;;;;;;8.90;99.90;;;;;;2008915;71;20141;-79
2022/11/07 06:50:06;;;;;;;;;;;8.80;99.90;;;;;;2007830;71;20324;-74
2022/11/07 06:52:32;;;;;;;;;;;8.90;99.90;;;;;;2009013;71;20127;-77
2022/11/07 06:54:59;;;;;;;;;;;9.00;99.90;;;;;;2008326;71;20139;-77
2022/11/07 06:57:26;;;;;;;;;;;9.10;99.90;;;;;;2003481;71;20124;-77
2022/11/07 06:59:52;;;;;;;;;;;9.10;99.90;;;;;;2005432;71;20192;-77
2022/11/07 07:02:19;;;;;;;;;;;9.00;99.90;;;;;;2004071;71;20124;-78
2022/11/07 07:04:47;;;;;;;;;;;9.20;99.90;;;;;;2004410;71;20171;-78
2022/11/07 07:07:14;;;;;;;;;;;9.20;99.90;;;;;;2007594;71;20138;-78
2022/11/07 07:09:41;;;;;;;;;;;9.20;99.90;;;;;;2006227;71;20146;-77
2022/11/07 07:12:09;;;;;;;;;;;9.40;99.90;;;;;;2006807;71;20266;-78
2022/11/07 07:17:39;;;;;;;;;;;9.40;99.90;;;;;;2009854;71;20120;-76
2022/11/07 07:20:06;;;;;;;;;;;9.50;99.90;;;;;;2009302;71;20147;-77
2022/11/07 07:22:32;;;;;;;;;;;9.60;99.90;;;;;;2007429;71;20159;-80
2022/11/07 07:24:59;;;;;;;;;;;9.70;99.90;;;;;;2008874;71;20178;-78
2022/11/07 07:27:26;;;;;;;;;;;9.60;99.90;;;;;;2008853;71;20336;-76
2022/11/07 07:29:52;;;;;;;;;;;9.80;99.90;;;;;;2005226;71;20121;-76
2022/11/07 07:32:19;;;;;;;;;;;10.00;99.90;;;;;;2006719;71;20465;-75
2022/11/07 07:34:46;;;;;;;;;;;9.90;99.90;;;;;;2006662;71;20120;-76
2022/11/07 07:37:13;;;;;;;;;;;9.90;99.90;;;;;;2007569;71;20104;-76
2022/11/07 07:39:40;;;;;;;;;;;10.10;99.90;;;;;;2009947;71;20156;-76
2022/11/07 07:42:07;;;;;;;;;;;10.20;99.90;;;;;;2008877;71;20104;-76
2022/11/07 07:44:34;;;;;;;;;;;10.40;99.90;;;;;;2011431;71;20150;-74
2022/11/07 07:47:01;;;;;;;;;;;10.50;99.90;;;;;;2005701;71;20159;-76
2022/11/07 07:49:28;;;;;;;;;;;10.50;99.90;;;;;;2011068;71;20392;-76
2022/11/07 07:51:55;;;;;;;;;;;10.50;99.90;;;;;;2010345;71;20107;-76
2022/11/07 07:54:21;;;;;;;;;;;10.50;99.90;;;;;;2008940;71;20356;-77
2022/11/07 07:56:48;;;;;;;;;;;10.50;99.90;;;;;;2010050;71;20142;-77
2022/11/07 07:59:15;;;;;;;;;;;10.70;99.90;;;;;;2008813;71;20117;-77
2022/11/07 08:01:41;;;;;;;;;;;10.70;99.90;;;;;;2003805;71;20210;-77
2022/11/07 08:04:08;;;;;;;;;;;10.90;99.90;;;;;;2004855;71;20156;-77
2022/11/07 08:06:36;;;;;;;;;;;11.00;99.90;;;;;;2010226;71;20138;-76
2022/11/07 08:09:05;;;;;;;;;;;11.10;99.90;;;;;;2004687;70;20121;-78
2022/11/07 08:11:32;;;;;;;;;;;11.30;99.90;;;;;;2009005;71;20118;-78
2022/11/07 08:13:58;;;;;;;;;;;11.50;99.90;;;;;;2005327;71;20117;-78
2022/11/07 08:16:25;;;;;;;;;;;11.40;99.90;;;;;;2007774;71;20328;-76
2022/11/07 08:18:52;;;;;;;;;;;11.60;99.90;;;;;;2008242;71;20155;-77
2022/11/07 08:21:19;;;;;;;;;;;11.80;99.90;;;;;;2006552;70;20144;-77
2022/11/07 08:23:46;;;;;;;;;;;12.00;99.90;;;;;;2009132;71;20363;-79
2022/11/07 08:26:14;;;;;;;;;;;11.90;99.90;;;;;;2007777;71;20352;-77
2022/11/07 08:28:41;;;;;;;;;;;12.10;99.90;;;;;;2010149;71;20104;-77
2022/11/07 08:31:08;;;;;;;;;;;12.10;99.90;;;;;;2009226;71;20166;-76
2022/11/07 08:33:35;;;;;;;;;;;12.10;99.90;;;;;;2007047;71;20101;-76
2022/11/07 08:36:02;;;;;;;;;;;12.00;99.90;;;;;;2003816;71;20185;-76
2022/11/07 08:38:29;;;;;;;;;;;12.00;99.90;;;;;;2006701;71;20112;-77
2022/11/07 08:40:56;;;;;;;;;;;12.00;99.90;;;;;;2006787;71;20123;-76
2022/11/07 08:43:22;;;;;;;;;;;11.90;99.90;;;;;;2007810;71;20151;-76
2022/11/07 08:45:49;;;;;;;;;;;11.90;99.90;;;;;;2010185;71;20193;-77
2022/11/07 08:48:16;;;;;;;;;;;11.90;99.90;;;;;;2010241;71;20112;-77
2022/11/07 08:50:43;;;;;;;;;;;12.00;99.90;;;;;;2005158;71;20374;-77
2022/11/07 08:53:09;;;;;;;;;;;12.10;99.90;;;;;;2005953;71;20191;-77
2022/11/07 08:55:36;;;;;;;;;;;12.10;99.90;;;;;;2007714;71;20312;-77
2022/11/07 08:58:06;;;;;;;;;;;12.20;99.90;;;;;;2007803;71;20105;-76
2022/11/07 09:00:33;;;;;;;;;;;12.30;99.90;;;;;;2005302;71;20152;-76
2022/11/07 09:03:04;;;;;;;;;;;12.30;99.90;;;;;;2005771;71;20226;-76
2022/11/07 09:05:31;;;;;;;;;;;12.30;99.90;;;;;;1992079;71;20147;-76
2022/11/07 09:07:57;;;;;;;;;;;12.40;99.90;;;;;;2008461;71;20175;-76
2022/11/07 09:10:24;;;;;;;;;;;12.60;99.90;;;;;;2008034;71;20281;-77
2022/11/07 09:12:51;;;;;;;;;;;12.70;99.90;;;;;;2004041;71;20324;-76
2022/11/07 09:15:18;;;;;;;;;;;12.80;99.90;;;;;;2009824;71;20116;-76
2022/11/07 09:17:45;;;;;;;;;;;12.90;99.90;;;;;;2005856;71;20336;-76
2022/11/07 09:20:16;;;;;;;;;;;13.00;99.90;;;;;;2005031;71;20142;-76
2022/11/07 09:22:40;;;;;;;;;;;13.10;99.90;;;;;;2007387;71;20287;-76
2022/11/07 09:25:07;;;;;;;;;;;13.20;99.90;;;;;;2010289;71;20116;-76
2022/11/07 09:27:34;;;;;;;;;;;13.40;99.90;;;;;;2008985;71;20115;-77
2022/11/07 09:30:02;;;;;;;;;;;13.50;99.90;;;;;;2005723;71;20186;-77
2022/11/07 09:32:28;;;;;;;;;;;13.60;99.90;;;;;;2009785;71;20340;-76
2022/11/07 09:34:55;;;;;;;;;;;13.70;99.90;;;;;;2008109;71;20119;-77
2022/11/07 09:37:22;;;;;;;;;;;13.80;99.90;;;;;;2010078;71;20112;-75
2022/11/07 09:39:48;;;;;;;;;;;13.90;99.90;;;;;;2009989;71;20124;-75
2022/11/07 09:42:33;;;;;;;;;;;14.10;99.90;;;;;;2007210;71;20166;-76
2022/11/07 09:45:00;;;;;;;;;;;14.30;99.90;;;;;;2005854;71;20366;-76
2022/11/07 09:47:36;;;;;;;;;;;14.30;99.90;;;;;;2005907;71;20138;-76
2022/11/07 09:50:04;;;;;;;;;;;14.20;99.90;;;;;;2006281;71;20120;-75
2022/11/07 09:52:42;;;;;;;;;;;14.30;99.90;;;;;;2007708;71;20105;-75
2022/11/07 09:55:19;;;;;;;;;;;14.30;99.90;;;;;;2007925;71;20146;-74
2022/11/07 09:57:46;;;;;;;;;;;14.20;99.90;;;;;;2010182;71;20347;-75
2022/11/07 10:00:14;;;;;;;;;;;14.00;99.90;;;;;;2010556;71;20116;-74
2022/11/07 10:02:45;;;;;;;;;;;14.00;99.90;;;;;;2007930;71;20347;-71
2022/11/07 10:05:13;;;;;;;;;;;14.10;99.90;;;;;;2010188;71;20339;-76
2022/11/07 10:07:48;;;;;;;;;;;14.20;99.90;;;;;;2008379;71;20409;-76
2022/11/07 10:10:19;;;;;;;;;;;14.00;99.90;;;;;;2008068;71;20184;-73
2022/11/07 10:13:06;;;;;;;;;;;14.00;99.90;;;;;;2008073;71;20113;-73
2022/11/07 10:15:46;;;;;;;;;;;14.00;99.90;;;;;;1883827;75;20153;-75
2022/11/07 10:18:31;;;;;;;;;;;13.90;99.90;;;;;;1983743;71;20149;-75
2022/11/07 10:20:59;;;;;;;;;;;14.10;99.90;;;;;;1961328;71;20122;-75
2022/11/07 10:23:45;;;;;;;;;;;14.10;99.90;;;;;;2003024;71;20117;-75
2022/11/07 10:26:14;;;;;;;;;;;14.40;99.90;;;;;;1898404;75;20359;-75
2022/11/07 10:28:42;;;;;;;;;;;14.30;99.90;;;;;;1889587;75;20190;-74
2022/11/07 10:31:09;;;;;;;;;;;14.30;99.90;;;;;;1888334;75;20124;-75
2022/11/07 10:33:39;;;;;;;;;;;14.30;99.90;;;;;;1896584;75;20112;-74
2022/11/07 10:36:26;;;;;;;;;;;14.20;99.90;;;;;;1902712;75;20118;-76
2022/11/07 10:38:52;;;;;;;;;;;14.10;99.90;;;;;;1890479;76;20116;-75
2022/11/07 10:41:20;;;;;;;;;;;14.40;99.90;;;;;;1902990;75;20161;-75
2022/11/07 10:43:59;;;;;;;;;;;14.40;99.90;;;;;;1893432;75;20123;-75
2022/11/07 10:46:27;;;;;;;;;;;14.60;99.90;;;;;;1901641;74;20197;-75
2022/11/07 10:48:55;;;;;;;;;;;14.50;99.90;;;;;;1893637;75;20235;-76
2022/11/07 10:51:38;;;;;;;;;;;14.60;99.90;;;;;;1901206;75;20159;-75
2022/11/07 10:54:05;;;;;;;;;;;14.70;99.90;;;;;;1892296;75;20108;-76
2022/11/07 10:56:33;;;;;;;;;;;14.90;99.90;;;;;;1895604;75;20209;-75
2022/11/07 10:59:01;;;;;;;;;;;15.00;99.90;;;;;;1890737;75;20124;-75
2022/11/07 11:01:27;;;;;;;;;;;15.00;99.90;;;;;;1896344;75;20127;-74
2022/11/07 11:03:54;;;;;;;;;;;14.90;99.90;;;;;;1894141;75;20208;-74
2022/11/07 11:06:22;;;;;;;;;;;15.00;99.90;;;;;;1892218;75;20441;-74
2022/11/07 11:08:50;;;;;;;;;;;15.20;99.90;;;;;;1895544;75;20154;-74
2022/11/07 11:11:23;;;;;;;;;;;15.30;99.90;;;;;;1892026;75;20108;-73
2022/11/07 11:13:49;;;;;;;;;;;15.10;99.90;;;;;;1902512;75;20150;-74
2022/11/07 11:16:20;;;;;;;;;;;15.00;99.90;;;;;;1867071;76;20320;-74
2022/11/07 11:18:52;;;;;;;;;;;15.10;99.90;;;;;;1923119;74;20141;-74
2022/11/07 11:21:19;;;;;;;;;;;15.20;99.90;;;;;;1923926;74;20175;-74
2022/11/07 11:23:46;;;;;;;;;;;15.20;99.90;;;;;;1927222;74;20102;-74
2022/11/07 11:26:31;;;;;;;;;;;15.40;99.90;;;;;;1927194;74;20122;-73
2022/11/07 11:28:59;;;;;;;;;;;15.30;99.90;;;;;;1927369;74;20149;-74
2022/11/07 11:31:28;;;;;;;;;;;15.60;99.90;;;;;;1923833;73;20153;-73
2022/11/07 11:34:05;;;;;;;;;;;15.80;99.90;;;;;;1924134;74;20121;-72
2022/11/07 11:36:36;;;;;;;;;;;16.00;99.90;;;;;;1923383;74;20160;-73
2022/11/07 11:39:03;;;;;;;;;;;16.20;99.90;;;;;;1892696;76;20336;-73
2022/11/07 11:41:34;;;;;;;;;;;16.20;99.90;;;;;;1923433;74;20191;-75
2022/11/07 11:44:02;;;;;;;;;;;16.00;99.90;;;;;;1924805;74;20184;-75
2022/11/07 11:46:47;;;;;;;;;;;15.90;99.90;;;;;;1925222;74;20159;-74
2022/11/07 11:49:32;;;;;;;;;;;16.00;99.90;;;;;;1924996;74;20121;-74
2022/11/07 11:52:00;;;;;;;;;;;16.00;99.90;;;;;;1892955;76;20116;-74
2022/11/07 11:54:27;;;;;;;;;;;16.00;99.90;;;;;;1891973;75;20154;-73
2022/11/07 11:57:04;;;;;;;;;;;16.30;99.90;;;;;;1925447;73;20152;-74
2022/11/07 11:59:33;;;;;;;;;;;15.90;99.90;;;;;;1924112;74;20219;-73
2022/11/07 12:02:04;;;;;;;;;;;15.80;99.90;;;;;;1924177;74;20140;-73
2022/11/07 12:04:38;;;;;;;;;;;15.80;99.90;;;;;;1924445;74;20117;-74
2022/11/07 12:07:09;;;;;;;;;;;15.90;99.90;;;;;;1923957;73;20167;-72
2022/11/07 12:09:46;;;;;;;;;;;16.00;99.90;;;;;;1924225;74;20349;-75
2022/11/07 12:12:17;;;;;;;;;;;16.00;99.90;;;;;;1925495;74;20361;-74
2022/11/07 12:14:45;;;;;;;;;;;15.80;99.90;;;;;;1923673;74;20363;-73
2022/11/07 12:17:14;;;;;;;;;;;15.90;99.90;;;;;;1925767;73;20106;-73
2022/11/07 12:19:48;;;;;;;;;;;15.80;99.90;;;;;;1905837;74;20180;-75
2022/11/07 12:22:16;;;;;;;;;;;15.70;99.90;;;;;;1926775;74;20329;-74
2022/11/07 12:24:48;;;;;;;;;;;15.80;99.90;;;;;;1927070;74;20344;-74
2022/11/07 12:27:34;;;;;;;;;;;15.80;99.90;;;;;;1923921;74;20122;-73
2022/11/07 12:30:09;;;;;;;;;;;15.90;99.90;;;;;;1925191;74;20189;-75
2022/11/07 12:32:46;;;;;;;;;;;15.90;99.90;;;;;;1926429;74;20110;-73
2022/11/07 12:35:15;;;;;;;;;;;16.00;99.90;;;;;;1926708;74;20329;-74
2022/11/07 12:37:43;;;;;;;;;;;16.10;99.90;;;;;;1926642;74;20222;-74
2022/11/07 12:40:11;;;;;;;;;;;16.30;99.90;;;;;;1923987;73;20106;-73
2022/11/07 12:42:49;;;;;;;;;;;16.30;99.90;;;;;;1924853;73;20183;-74
2022/11/07 12:45:20;;;;;;;;;;;16.50;99.90;;;;;;1925513;73;20202;-75
2022/11/07 12:47:48;;;;;;;;;;;16.50;99.90;;;;;;1923184;74;20154;-74
2022/11/07 12:50:16;;;;;;;;;;;16.70;99.90;;;;;;1926864;74;20133;-73
2022/11/07 12:52:45;;;;;;;;;;;16.60;99.90;;;;;;1926749;74;20153;-74
2022/11/07 12:55:16;;;;;;;;;;;16.60;99.90;;;;;;1927258;74;20442;-74
2022/11/07 12:57:43;;;;;;;;;;;16.40;99.90;;;;;;1925194;74;20338;-75
2022/11/07 13:00:20;;;;;;;;;;;16.30;99.90;;;;;;1926406;73;20114;-74
2022/11/07 13:03:05;;;;;;;;;;;16.20;99.90;;;;;;1924721;73;20330;-75
2022/11/07 13:08:35;;;;;;;;;;;16.40;99.90;;;;;;1859833;74;20208;-75
2022/11/07 13:11:04;;;;;;;;;;;16.40;99.90;;;;;;1867091;75;20124;-76
2022/11/07 13:13:35;;;;;;;;;;;16.20;99.90;;;;;;1866313;74;20129;-75
2022/11/07 13:16:09;;;;;;;;;;;16.10;99.90;;;;;;1865633;74;20322;-75
2022/11/07 13:18:36;;;;;;;;;;;16.00;99.90;;;;;;1863731;74;20199;-72
2022/11/07 13:21:03;;;;;;;;;;;16.00;99.90;;;;;;1866518;74;20191;-69
2022/11/07 13:23:30;;;;;;;;;;;16.00;99.90;;;;;;1866982;76;20135;-74
2022/11/07 13:26:04;;;;;;;;;;;16.00;99.90;;;;;;1866298;74;20180;-75
2022/11/07 13:28:35;;;;;;;;;;;15.90;99.90;;;;;;1866933;74;20170;-75
2022/11/07 13:31:02;;;;;;;;;;;15.90;99.90;;;;;;1861544;77;20108;-75
2022/11/07 13:33:29;;;;;;;;;;;16.00;99.90;;;;;;1866369;76;20122;-74
2022/11/07 13:35:58;;;;;;;;;;;16.00;99.90;;;;;;1866096;76;20126;-75
2022/11/07 13:38:24;;;;;;;;;;;16.20;99.90;;;;;;1867990;74;20165;-75
2022/11/07 13:41:01;;;;;;;;;;;16.50;99.90;;;;;;1869040;74;20338;-74
2022/11/07 13:43:40;;;;;;;;;;;16.60;99.90;;;;;;1865353;76;20342;-74
2022/11/07 13:46:07;;;;;;;;;;;16.60;99.90;;;;;;1866269;77;20107;-75
2022/11/07 13:48:41;;;;;;;;;;;16.50;99.90;;;;;;1866865;74;20116;-74
2022/11/07 13:51:10;;;;;;;;;;;16.50;99.90;;;;;;1866818;75;20173;-75
2022/11/07 13:53:38;;;;;;;;;;;16.40;99.90;;;;;;1866859;74;20118;-76
2022/11/07 13:56:09;;;;;;;;;;;16.40;99.90;;;;;;1866559;74;20342;-71
2022/11/07 13:58:36;;;;;;;;;;;16.40;99.90;;;;;;1865380;77;20114;-70
2022/11/07 14:01:03;;;;;;;;;;;16.30;99.90;;;;;;1866043;77;20246;-70
2022/11/07 14:03:30;;;;;;;;;;;16.30;99.90;;;;;;1865866;75;20106;-75
2022/11/07 14:05:57;;;;;;;;;;;16.30;99.90;;;;;;1866519;74;20119;-71
2022/11/07 14:08:31;;;;;;;;;;;16.30;99.90;;;;;;1866564;74;20253;-73
2022/11/07 14:10:58;;;;;;;;;;;16.30;99.90;;;;;;1866351;74;20176;-75
2022/11/07 14:13:26;;;;;;;;;;;16.30;99.90;;;;;;1866865;74;20365;-73
2022/11/07 14:15:53;;;;;;;;;;;16.20;99.90;;;;;;1866088;74;20156;-74
2022/11/07 14:18:21;;;;;;;;;;;16.20;99.90;;;;;;1866630;74;20123;-74
2022/11/07 14:20:49;;;;;;;;;;;16.30;99.90;;;;;;1866204;74;20215;-74
2022/11/07 14:23:16;;;;;;;;;;;16.20;99.90;;;;;;1866227;76;20386;-73
2022/11/07 14:25:43;;;;;;;;;;;16.00;99.90;;;;;;1866749;74;20174;-74
2022/11/07 14:28:14;;;;;;;;;;;15.90;99.90;;;;;;1866152;77;20122;-71
2022/11/07 14:30:41;;;;;;;;;;;16.00;99.90;;;;;;1866333;74;20310;-70
2022/11/07 14:33:12;;;;;;;;;;;15.90;99.90;;;;;;1866757;74;20117;-71
2022/11/07 14:35:40;;;;;;;;;;;15.90;99.90;;;;;;1865397;77;20152;-71
2022/11/07 14:38:11;;;;;;;;;;;16.00;99.90;;;;;;1866616;74;20171;-70
2022/11/07 14:40:38;;;;;;;;;;;16.10;99.90;;;;;;1866505;74;20128;-70
2022/11/07 14:43:04;;;;;;;;;;;16.10;99.90;;;;;;1866927;75;20112;-69